createdAt,value
2022-08-07T00:02:37.292Z,18.84
2022-08-07T00:04:09.669Z,18.60
2022-08-07T00:06:45.508Z,19.05
2022-08-07T00:09:20.949Z,18.95
2022-08-07T00:11:55.585Z,18.43
2022-08-07T00:14:31.472Z,18.59
2022-08-07T00:17:00.280Z,18.92
2022-08-07T00:19:34.143Z,18.89
2022-08-07T00:22:24.458Z,18.66
2022-08-07T00:25:15.775Z,18.51
2022-08-07T00:27:52.272Z,18.86
2022-08-07T00:30:27.644Z,18.84
2022-08-07T00:32:57.432Z,18.89
2022-08-07T00:35:26.353Z,18.87
2022-08-07T00:37:53.545Z,18.82
2022-08-07T00:40:39.006Z,18.77
2022-08-07T00:43:09.867Z,18.60
2022-08-07T00:45:40.749Z,18.58
2022-08-07T00:48:10.906Z,18.52
2022-08-07T00:50:50.670Z,18.72
2022-08-07T00:53:21.392Z,18.63
2022-08-07T00:56:02.646Z,18.35
2022-08-07T00:58:32.385Z,18.36
2022-08-07T01:00:59.851Z,18.31
2022-08-07T01:03:57.391Z,18.28
2022-08-07T01:06:13.876Z,18.49
2022-08-07T01:08:51.243Z,17.99
2022-08-07T01:12:04.387Z,18.40
2022-08-07T01:14:08.996Z,18.45
2022-08-07T01:16:36.900Z,18.20
2022-08-07T01:19:10.827Z,17.83
2022-08-07T01:21:47.089Z,18.42
2022-08-07T01:24:14.333Z,18.00
2022-08-07T01:26:51.555Z,18.25
2022-08-07T01:29:22.413Z,18.09
2022-08-07T01:31:52.047Z,18.31
2022-08-07T01:34:19.539Z,18.11
2022-08-07T01:36:52.981Z,18.19
2022-08-07T01:39:40.579Z,16.41
2022-08-07T01:42:38.410Z,18.14
2022-08-07T01:45:02.865Z,17.54
2022-08-07T01:48:18.476Z,18.13
2022-08-07T01:50:28.563Z,17.79
2022-08-07T01:52:58.407Z,18.09
2022-08-07T01:55:39.470Z,18.03
2022-08-07T01:58:29.537Z,18.03
2022-08-07T02:01:25.052Z,18.00
2022-08-07T02:03:58.160Z,17.88
2022-08-07T02:06:31.305Z,17.34
2022-08-07T02:09:07.729Z,17.74
2022-08-07T02:12:03.482Z,17.41
2022-08-07T02:14:36.130Z,17.52
2022-08-07T02:17:12.908Z,17.36
2022-08-07T02:20:07.016Z,17.45
2022-08-07T02:22:41.009Z,17.58
2022-08-07T02:25:13.758Z,17.37
2022-08-07T02:27:58.506Z,17.54
2022-08-07T02:30:27.121Z,17.15
2022-08-07T02:33:00.985Z,17.07
2022-08-07T02:36:30.175Z,17.21
2022-08-07T02:38:32.322Z,16.88
2022-08-07T02:41:04.288Z,17.37
2022-08-07T02:43:36.174Z,16.72
2022-08-07T02:46:08.873Z,17.29
2022-08-07T02:48:37.835Z,16.92
2022-08-07T02:51:29.011Z,17.21
2022-08-07T02:54:01.657Z,17.28
2022-08-07T02:56:31.587Z,17.16
2022-08-07T02:59:02.198Z,17.14
2022-08-07T03:01:36.009Z,17.08
2022-08-07T03:04:12.341Z,16.68
2022-08-07T03:06:42.285Z,16.74
2022-08-07T03:09:13.895Z,16.89
2022-08-07T03:11:52.459Z,16.47
2022-08-07T03:14:30.790Z,16.43
2022-08-07T03:16:57.836Z,16.71
2022-08-07T03:19:29.092Z,16.82
2022-08-07T03:22:05.876Z,16.58
2022-08-07T03:24:34.594Z,16.57
2022-08-07T03:27:06.186Z,16.38
2022-08-07T03:29:52.142Z,16.57
2022-08-07T03:32:25.847Z,16.45
2022-08-07T03:35:16.598Z,16.52
2022-08-07T03:37:54.037Z,16.47
2022-08-07T03:40:27.459Z,16.55
2022-08-07T03:43:03.987Z,16.28
2022-08-07T03:45:39.665Z,16.47
2022-08-07T03:48:12.271Z,16.45
2022-08-07T03:50:43.060Z,16.44
2022-08-07T03:53:18.923Z,16.45
2022-08-07T03:56:04.404Z,16.13
2022-08-07T03:59:08.923Z,15.91
2022-08-07T04:01:23.180Z,16.33
2022-08-07T04:03:55.124Z,16.23
2022-08-07T04:06:38.400Z,15.98
2022-08-07T04:09:15.141Z,16.13
2022-08-07T04:12:21.289Z,16.20
2022-08-07T04:14:37.793Z,16.15
2022-08-07T04:17:20.270Z,16.02
2022-08-07T04:19:52.516Z,16.11
2022-08-07T04:22:27.505Z,16.04
2022-08-07T04:24:58.115Z,15.93
2022-08-07T04:27:26.488Z,15.84
2022-08-07T04:30:01.937Z,15.76
2022-08-07T04:32:58.435Z,15.18
2022-08-07T04:35:28.684Z,16.12
2022-08-07T04:38:11.444Z,16.21
2022-08-07T04:40:52.806Z,16.25
2022-08-07T04:44:10.354Z,16.15
2022-08-07T04:47:04.155Z,16.02
2022-08-07T04:49:42.085Z,16.15
2022-08-07T04:52:51.304Z,16.16
2022-08-07T04:58:12.483Z,16.23
2022-08-07T05:00:07.772Z,16.17
2022-08-07T05:02:16.795Z,16.17
2022-08-07T05:05:53.176Z,16.14
2022-08-07T05:08:59.850Z,16.30
2022-08-07T05:11:19.317Z,16.10
2022-08-07T05:14:52.900Z,16.02
2022-08-07T05:16:52.942Z,16.15
2022-08-07T05:19:32.548Z,16.41
2022-08-07T05:22:04.887Z,16.62
2022-08-07T05:24:40.427Z,16.77
2022-08-07T05:28:02.114Z,16.86
2022-08-07T05:30:02.456Z,16.64
2022-08-07T05:32:30.894Z,16.49
2022-08-07T05:34:58.840Z,17.13
2022-08-07T05:37:26.277Z,17.45
2022-08-07T05:40:13.942Z,17.28
2022-08-07T05:42:55.704Z,17.57
2022-08-07T05:45:26.356Z,17.62
2022-08-07T05:48:13.370Z,17.58
2022-08-07T05:50:44.918Z,17.86
2022-08-07T05:54:13.457Z,17.84
2022-08-07T05:56:05.826Z,17.76
2022-08-07T05:58:37.716Z,17.90
2022-08-07T06:01:11.336Z,18.19
2022-08-07T06:03:57.200Z,18.25
2022-08-07T06:06:32.191Z,18.31
2022-08-07T06:09:04.820Z,18.45
2022-08-07T06:11:34.347Z,18.40
2022-08-07T06:14:13.213Z,18.71
2022-08-07T06:16:56.246Z,18.70
2022-08-07T06:19:58.113Z,18.79
2022-08-07T06:22:23.460Z,19.15
2022-08-07T06:25:01.462Z,19.16
2022-08-07T06:28:00.679Z,19.28
2022-08-07T06:30:32.488Z,19.61
2022-08-07T06:33:10.021Z,19.44
2022-08-07T06:35:47.646Z,19.59
2022-08-07T06:38:31.769Z,20.03
2022-08-07T06:41:00.676Z,20.11
2022-08-07T06:43:39.151Z,20.25
2022-08-07T06:46:15.073Z,20.39
2022-08-07T06:48:57.944Z,20.64
2022-08-07T06:51:33.431Z,20.71
2022-08-07T06:55:27.528Z,20.83
2022-08-07T06:56:57.451Z,20.89
2022-08-07T07:00:14.658Z,21.09
2022-08-07T07:02:54.462Z,21.08
2022-08-07T07:05:13.414Z,21.32
2022-08-07T07:08:06.927Z,21.45
2022-08-07T07:10:36.653Z,21.57
2022-08-07T07:13:13.084Z,21.78
2022-08-07T07:15:51.379Z,22.11
2022-08-07T07:18:47.922Z,22.30
2022-08-07T07:21:40.441Z,21.98
2022-08-07T07:24:17.529Z,21.98
2022-08-07T07:26:52.138Z,22.14
2022-08-07T07:29:40.117Z,22.23
2022-08-07T07:32:14.041Z,22.66
2022-08-07T07:34:46.558Z,22.92
2022-08-07T07:37:44.286Z,23.07
2022-08-07T07:40:15.000Z,23.04
2022-08-07T07:42:51.121Z,23.70
2022-08-07T07:46:36.664Z,23.99
2022-08-07T07:48:35.136Z,24.45
2022-08-07T07:51:07.969Z,24.76
2022-08-07T07:53:52.050Z,24.72
2022-08-07T07:56:29.996Z,24.64
2022-08-07T07:59:00.266Z,24.82
2022-08-07T08:02:03.992Z,24.89
2022-08-07T08:04:20.086Z,24.75
2022-08-07T08:06:53.853Z,24.89
2022-08-07T08:09:24.530Z,25.30
2022-08-07T08:12:01.660Z,25.19
2022-08-07T08:14:31.947Z,25.23
2022-08-07T08:17:56.683Z,25.17
2022-08-07T08:20:18.529Z,25.41
2022-08-07T08:23:01.685Z,25.74
2022-08-07T08:25:52.331Z,26.06
2022-08-07T08:28:38.204Z,26.29
2022-08-07T08:31:15.906Z,26.31
2022-08-07T08:33:49.573Z,26.91
2022-08-07T08:36:29.996Z,26.90
2022-08-07T08:39:02.198Z,26.50
2022-08-07T08:41:59.413Z,26.58
2022-08-07T08:44:29.189Z,26.91
2022-08-07T08:47:10.098Z,27.03
2022-08-07T08:49:57.236Z,27.26
2022-08-07T08:52:51.565Z,26.99
2022-08-07T08:55:55.095Z,27.16
2022-08-07T08:58:34.063Z,27.40
2022-08-07T09:01:15.156Z,26.98
2022-08-07T09:03:52.729Z,27.41
2022-08-07T09:06:32.738Z,27.81
2022-08-07T09:09:36.959Z,27.86
2022-08-07T09:12:32.266Z,28.20
2022-08-07T09:16:22.612Z,28.53
2022-08-07T09:18:23.849Z,28.94
2022-08-07T09:20:58.042Z,29.03
2022-08-07T09:24:32.369Z,28.99
2022-08-07T09:26:47.685Z,28.60
2022-08-07T09:30:06.432Z,28.69
2022-08-07T09:33:24.220Z,28.84
2022-08-07T09:36:04.424Z,28.92
2022-08-07T09:38:59.234Z,28.92
2022-08-07T09:42:03.017Z,28.78
2022-08-07T09:47:52.419Z,29.44
2022-08-07T09:48:05.175Z,29.18
2022-08-07T09:50:56.456Z,29.37
2022-08-07T09:53:40.890Z,29.13
2022-08-07T09:56:37.245Z,29.13
2022-08-07T09:59:14.961Z,29.03
2022-08-07T10:02:00.341Z,28.94
2022-08-07T10:04:47.537Z,29.31
2022-08-07T10:07:53.652Z,29.76
2022-08-07T10:10:28.466Z,30.23
2022-08-07T10:14:00.039Z,30.42
2022-08-07T10:16:34.583Z,30.27
2022-08-07T10:19:16.201Z,30.34
2022-08-07T10:22:16.282Z,30.79
2022-08-07T10:24:46.074Z,30.92
2022-08-07T10:27:46.855Z,30.59
2022-08-07T10:30:33.837Z,30.80
2022-08-07T10:34:06.083Z,31.03
2022-08-07T10:37:12.644Z,30.54
2022-08-07T10:40:03.399Z,30.89
2022-08-07T10:43:07.223Z,31.14
2022-08-07T10:45:45.422Z,31.11
2022-08-07T10:48:35.078Z,30.67
2022-08-07T10:51:07.409Z,30.59
2022-08-07T10:54:08.683Z,30.45
2022-08-07T10:56:57.087Z,30.87
2022-08-07T10:59:37.076Z,30.87
2022-08-07T11:02:34.016Z,30.72
2022-08-07T11:05:48.653Z,30.91
2022-08-07T11:08:34.409Z,30.92
2022-08-07T11:11:07.935Z,31.05
2022-08-07T11:14:45.853Z,31.20
2022-08-07T11:16:54.833Z,30.52
2022-08-07T11:19:39.171Z,30.33
2022-08-07T11:22:19.130Z,30.44
2022-08-07T11:25:06.746Z,30.22
2022-08-07T11:28:01.317Z,30.62
2022-08-07T11:30:41.681Z,30.71
2022-08-07T11:33:58.535Z,30.91
2022-08-07T11:36:39.294Z,30.88
2022-08-07T11:39:55.767Z,31.32
2022-08-07T11:42:47.398Z,31.35
2022-08-07T11:45:36.063Z,31.34
2022-08-07T11:48:29.233Z,31.82
2022-08-07T11:51:44.740Z,31.31
2022-08-07T11:54:55.111Z,31.40
2022-08-07T11:58:00.273Z,31.12
2022-08-07T12:00:28.698Z,31.03
2022-08-07T12:03:44.893Z,30.69
2022-08-07T12:06:50.780Z,31.44
2022-08-07T12:09:31.713Z,31.67
2022-08-07T12:12:10.218Z,31.64
2022-08-07T12:15:01.961Z,31.99
2022-08-07T12:17:57.804Z,32.04
2022-08-07T12:20:55.806Z,31.96
2022-08-07T12:24:05.273Z,31.52
2022-08-07T12:26:29.849Z,31.67
2022-08-07T12:29:07.684Z,31.52
2022-08-07T12:32:02.018Z,31.47
2022-08-07T12:34:31.287Z,31.30
2022-08-07T12:37:08.757Z,31.25
2022-08-07T12:39:52.147Z,31.34
2022-08-07T12:42:28.285Z,31.38
2022-08-07T12:45:06.628Z,31.17
2022-08-07T12:47:52.464Z,31.48
2022-08-07T12:50:49.382Z,31.39
2022-08-07T12:54:03.471Z,31.39
2022-08-07T12:56:28.009Z,31.39
2022-08-07T12:58:59.548Z,31.50
2022-08-07T13:01:57.694Z,31.73
2022-08-07T13:05:01.737Z,31.84
2022-08-07T13:08:14.674Z,32.00
2022-08-07T13:11:03.879Z,31.71
2022-08-07T13:13:46.645Z,31.54
2022-08-07T13:16:16.259Z,31.22
2022-08-07T13:19:35.125Z,31.18
2022-08-07T13:22:33.581Z,31.24
2022-08-07T13:25:06.776Z,31.09
2022-08-07T13:28:12.394Z,31.24
2022-08-07T13:30:49.092Z,31.73
2022-08-07T13:34:31.338Z,31.44
2022-08-07T13:36:35.374Z,31.50
2022-08-07T13:40:33.028Z,31.28
2022-08-07T13:42:25.228Z,31.53
2022-08-07T13:45:11.522Z,31.37
2022-08-07T13:48:08.488Z,31.45
2022-08-07T13:50:35.062Z,31.51
2022-08-07T13:53:21.854Z,31.43
2022-08-07T13:55:54.530Z,30.48
2022-08-07T13:58:56.414Z,31.14
2022-08-07T14:01:51.035Z,31.58
2022-08-07T14:04:29.904Z,31.53
2022-08-07T14:07:09.196Z,31.01
2022-08-07T14:10:12.326Z,30.50
2022-08-07T14:12:41.482Z,30.08
2022-08-07T14:15:36.030Z,30.63
2022-08-07T14:18:15.667Z,30.39
2022-08-07T14:21:08.450Z,30.38
2022-08-07T14:24:01.107Z,30.73
2022-08-07T14:26:39.260Z,30.97
2022-08-07T14:30:06.231Z,30.83
2022-08-07T14:32:02.167Z,30.92
2022-08-07T14:34:33.047Z,30.44
2022-08-07T14:37:03.203Z,30.50
2022-08-07T14:40:16.129Z,30.34
2022-08-07T14:42:31.210Z,30.26
2022-08-07T14:45:21.271Z,30.47
2022-08-07T14:47:49.569Z,30.29
2022-08-07T14:50:20.471Z,30.26
2022-08-07T14:52:47.868Z,30.43
2022-08-07T14:55:19.709Z,30.14
2022-08-07T14:57:58.253Z,29.96
2022-08-07T15:00:31.300Z,29.72
2022-08-07T15:03:15.709Z,29.86
2022-08-07T15:06:03.922Z,29.64
2022-08-07T15:08:35.464Z,29.48
2022-08-07T15:11:53.359Z,29.72
2022-08-07T15:14:20.217Z,29.87
2022-08-07T15:16:54.883Z,29.60
2022-08-07T15:20:30.702Z,29.41
2022-08-07T15:22:23.161Z,29.47
2022-08-07T15:25:16.980Z,29.75
2022-08-07T15:31:05.238Z,29.61
2022-08-07T15:33:36.359Z,29.49
2022-08-07T15:36:06.623Z,29.43
2022-08-07T15:42:43.967Z,28.79
2022-08-07T15:44:17.066Z,29.29
2022-08-07T15:46:52.673Z,29.38
2022-08-07T15:50:05.885Z,29.58
2022-08-07T15:52:21.649Z,29.76
2022-08-07T15:55:02.857Z,29.74
2022-08-07T15:57:48.860Z,29.60
2022-08-07T16:00:32.114Z,29.67
2022-08-07T16:03:20.488Z,29.21
2022-08-07T16:05:50.296Z,29.31
2022-08-07T16:08:32.990Z,29.13
2022-08-07T16:11:26.880Z,29.26
2022-08-07T16:14:32.311Z,29.45
2022-08-07T16:17:15.950Z,32.90
2022-08-07T16:20:33.730Z,35.58
2022-08-07T16:23:55.098Z,36.74
2022-08-07T16:26:30.883Z,36.69
2022-08-07T16:30:10.267Z,37.40
2022-08-07T16:32:54.952Z,38.64
2022-08-07T16:35:56.891Z,37.19
2022-08-07T16:39:01.075Z,37.71
2022-08-07T16:41:41.233Z,37.95
2022-08-07T16:45:03.801Z,37.38
2022-08-07T16:47:51.265Z,38.61
2022-08-07T16:50:39.151Z,39.14
2022-08-07T16:54:02.836Z,39.13
2022-08-07T16:56:19.073Z,39.10
2022-08-07T16:59:11.000Z,38.91
2022-08-07T17:01:59.831Z,38.86
2022-08-07T17:04:58.993Z,38.08
2022-08-07T17:07:55.826Z,38.49
2022-08-07T17:10:30.128Z,38.58
2022-08-07T17:13:41.798Z,38.92
2022-08-07T17:16:29.301Z,38.15
2022-08-07T17:19:04.641Z,37.03
2022-08-07T17:21:50.728Z,37.91
2022-08-07T17:24:34.571Z,38.17
2022-08-07T17:27:10.067Z,38.77
2022-08-07T17:30:16.193Z,38.31
2022-08-07T17:34:09.953Z,38.32
2022-08-07T17:36:19.982Z,37.83
2022-08-07T17:38:55.355Z,37.52
2022-08-07T17:42:04.913Z,37.48
2022-08-07T17:44:51.535Z,37.25
2022-08-07T17:47:58.017Z,36.93
2022-08-07T17:50:46.876Z,34.30
2022-08-07T17:54:00.772Z,31.65
2022-08-07T17:56:29.818Z,29.98
2022-08-07T17:58:56.811Z,29.07
2022-08-07T18:01:39.299Z,28.46
2022-08-07T18:04:31.158Z,27.99
2022-08-07T18:07:20.503Z,27.69
2022-08-07T18:10:07.576Z,27.33
2022-08-07T18:13:03.061Z,27.32
2022-08-07T18:16:12.446Z,27.07
2022-08-07T18:21:06.658Z,26.81
2022-08-07T18:22:17.168Z,26.76
2022-08-07T18:25:01.448Z,26.57
2022-08-07T18:27:38.892Z,26.19
2022-08-07T18:30:32.503Z,26.10
2022-08-07T18:33:54.899Z,26.23
2022-08-07T18:36:54.058Z,25.74
2022-08-07T18:40:05.624Z,25.58
2022-08-07T18:42:53.840Z,25.84
2022-08-07T18:45:44.319Z,25.61
2022-08-07T18:50:19.035Z,25.61
2022-08-07T18:52:34.935Z,25.23
2022-08-07T18:54:57.434Z,25.25
2022-08-07T18:57:59.473Z,25.30
2022-08-07T19:01:08.941Z,25.17
2022-08-07T19:04:19.668Z,25.16
2022-08-07T19:07:03.946Z,24.32
2022-08-07T19:09:55.716Z,24.16
2022-08-07T19:12:53.455Z,24.37
2022-08-07T19:16:05.877Z,24.06
2022-08-07T19:18:52.059Z,23.72
2022-08-07T19:21:47.484Z,23.87
2022-08-07T19:24:30.189Z,23.89
2022-08-07T19:28:57.638Z,23.50
2022-08-07T19:31:05.678Z,23.43
2022-08-07T19:33:13.094Z,21.79
2022-08-07T19:35:53.630Z,22.56
2022-08-07T19:38:21.881Z,22.96
2022-08-07T19:40:51.852Z,22.33
2022-08-07T19:43:50.172Z,23.05
2022-08-07T19:46:14.736Z,22.58
2022-08-07T19:48:55.900Z,22.84
2022-08-07T19:51:52.251Z,22.53
2022-08-07T19:54:31.938Z,22.44
2022-08-07T19:57:52.057Z,22.33
2022-08-07T19:59:58.889Z,22.11
2022-08-07T20:02:33.573Z,21.76
2022-08-07T20:05:08.843Z,22.16
2022-08-07T20:07:46.919Z,21.77
2022-08-07T20:10:35.219Z,21.70
2022-08-07T20:13:23.678Z,21.30
2022-08-07T20:15:57.582Z,21.28
2022-08-07T20:18:32.326Z,21.37
2022-08-07T20:21:29.217Z,21.07
2022-08-07T20:24:22.012Z,21.23
2022-08-07T20:26:52.351Z,21.19
2022-08-07T20:29:48.997Z,21.16
2022-08-07T20:32:22.240Z,21.04
2022-08-07T20:34:58.546Z,21.06
2022-08-07T20:37:55.626Z,20.97
2022-08-07T20:40:33.510Z,21.04
2022-08-07T20:43:09.427Z,21.04
2022-08-07T20:46:28.292Z,21.00
2022-08-07T20:48:34.175Z,20.94
2022-08-07T20:51:04.124Z,20.72
2022-08-07T20:54:02.858Z,20.68
2022-08-07T20:56:28.081Z,20.56
2022-08-07T20:58:59.031Z,20.55
2022-08-07T21:01:36.322Z,20.29
2022-08-07T21:04:22.349Z,20.56
2022-08-07T21:06:55.115Z,20.63
2022-08-07T21:09:51.904Z,20.66
2022-08-07T21:12:28.411Z,20.45
2022-08-07T21:14:58.609Z,20.43
2022-08-07T21:18:05.996Z,20.27
2022-08-07T21:20:26.564Z,20.39
2022-08-07T21:22:59.349Z,20.29
2022-08-07T21:25:57.011Z,20.17
2022-08-07T21:28:51.115Z,20.03
2022-08-07T21:32:42.938Z,19.99
2022-08-07T21:34:48.843Z,19.90
2022-08-07T21:37:22.584Z,19.77
2022-08-07T21:39:59.620Z,19.70
2022-08-07T21:42:46.497Z,19.78
2022-08-07T21:46:08.335Z,19.83
2022-08-07T21:48:55.760Z,19.75
2022-08-07T21:51:51.880Z,19.68
2022-08-07T21:54:33.770Z,19.66
2022-08-07T21:57:31.407Z,19.60
2022-08-07T22:00:24.899Z,19.52
2022-08-07T22:02:55.160Z,19.49
2022-08-07T22:05:45.730Z,19.52
2022-08-07T22:08:18.741Z,19.50
2022-08-07T22:10:54.657Z,19.33
2022-08-07T22:13:50.448Z,19.19
2022-08-07T22:16:43.042Z,19.04
2022-08-07T22:19:16.087Z,19.11
2022-08-07T22:22:01.945Z,19.13
2022-08-07T22:24:37.595Z,19.16
2022-08-07T22:27:16.144Z,19.10
2022-08-07T22:29:56.527Z,18.82
2022-08-07T22:32:38.822Z,18.80
2022-08-07T22:35:11.253Z,18.78
2022-08-07T22:38:04.640Z,18.60
2022-08-07T22:40:59.900Z,18.78
2022-08-07T22:43:56.156Z,18.73
2022-08-07T22:47:03.379Z,18.68
2022-08-07T22:49:54.255Z,18.64
2022-08-07T22:52:39.808Z,18.56
2022-08-07T22:55:23.396Z,18.38
2022-08-07T22:58:15.737Z,18.13
2022-08-07T23:00:57.676Z,18.00
2022-08-07T23:03:58.220Z,17.94
2022-08-07T23:07:40.185Z,17.88
2022-08-07T23:10:38.374Z,17.81
2022-08-07T23:13:16.337Z,17.67
2022-08-07T23:16:48.499Z,17.73
2022-08-07T23:19:57.871Z,17.67
2022-08-07T23:22:48.762Z,17.56
2022-08-07T23:25:28.506Z,17.56
2022-08-07T23:28:21.844Z,17.52
2022-08-07T23:32:48.806Z,17.46
2022-08-07T23:34:39.965Z,17.34
2022-08-07T23:38:01.620Z,17.26
2022-08-07T23:40:59.690Z,17.14
2022-08-07T23:44:17.437Z,17.04
2022-08-07T23:47:10.272Z,17.01
2022-08-07T23:49:57.654Z,17.01
2022-08-07T23:53:00.908Z,17.00
2022-08-07T23:55:52.071Z,16.82
2022-08-07T23:58:38.420Z,17.07
